Time;durP1;ratioP1;P1;durP2;ratioP2;P2;SDS_P1;SDS_P2;PMS_P1;PMS_P2;Temp;Humidity;BMP_temperature;BMP_pressure;BME280_temperature;BME280_humidity;BME280_pressure;Samples;Min_cycle;Max_cycle;Signal;HPM_P1;HPM_P2
2022/11/15 00:00:50;;;;;;;27.23;17.92;;;7.80;99.90;;;;;;5091667;28;20548;-80
2022/11/15 00:03:17;;;;;;;26.48;17.40;;;7.80;99.90;;;;;;5091405;28;20048;-79
2022/11/15 00:05:43;;;;;;;29.67;17.60;;;7.70;99.90;;;;;;5091904;28;20043;-78
2022/11/15 00:08:09;;;;;;;29.25;16.92;;;7.70;99.90;;;;;;5091439;28;20372;-78
2022/11/15 00:10:36;;;;;;;25.63;17.65;;;7.70;99.90;;;;;;5091545;28;20052;-78
2022/11/15 00:13:10;;;;;;;24.63;17.42;;;7.60;99.90;;;;;;5073342;28;20044;-79
2022/11/15 00:15:40;;;;;;;26.93;15.97;;;7.60;99.90;;;;;;5091740;28;20040;-77
2022/11/15 00:18:12;;;;;;;26.02;17.05;;;7.50;99.90;;;;;;5091043;28;20387;-78
2022/11/15 00:20:37;;;;;;;24.90;17.10;;;7.50;99.90;;;;;;5091616;28;20040;-77
2022/11/15 00:23:04;;;;;;;25.83;17.77;;;7.40;99.90;;;;;;5091226;28;20071;-78
2022/11/15 00:25:30;;;;;;;27.23;18.00;;;7.40;99.90;;;;;;5090903;28;20066;-77
2022/11/15 00:27:57;;;;;;;26.90;17.35;;;7.40;99.90;;;;;;5091409;28;20114;-78
2022/11/15 00:30:23;;;;;;;25.08;16.88;;;7.40;99.90;;;;;;5072559;28;20829;-77
2022/11/15 00:32:49;;;;;;;26.35;17.35;;;7.40;99.90;;;;;;5091372;28;20043;-78
2022/11/15 00:35:15;;;;;;;25.92;17.38;;;7.40;99.90;;;;;;5073030;28;20044;-78
2022/11/15 00:37:40;;;;;;;26.55;17.27;;;7.40;99.90;;;;;;5091557;28;20097;-79
2022/11/15 00:40:07;;;;;;;26.95;17.65;;;7.90;99.90;;;;;;5091138;28;20044;-77
2022/11/15 00:42:32;;;;;;;24.40;17.02;;;7.40;99.90;;;;;;5091097;28;20444;-78
2022/11/15 00:44:58;;;;;;;27.67;18.02;;;7.40;99.90;;;;;;5090950;28;20065;-77
2022/11/15 00:47:24;;;;;;;27.25;17.42;;;7.40;99.90;;;;;;5090829;28;20036;-78
2022/11/15 00:49:49;;;;;;;25.80;17.60;;;7.40;99.90;;;;;;5091097;28;20122;-77
2022/11/15 00:52:15;;;;;;;25.17;16.63;;;7.70;99.90;;;;;;5090838;28;20052;-78
2022/11/15 00:54:40;;;;;;;26.70;16.70;;;7.70;99.90;;;;;;5072216;28;20044;-77
2022/11/15 00:57:06;;;;;;;26.55;17.70;;;7.70;99.90;;;;;;5090839;28;20036;-77
2022/11/15 00:59:31;;;;;;;27.42;18.20;;;7.40;99.90;;;;;;5090696;28;20535;-78
2022/11/15 01:01:57;;;;;;;26.70;17.58;;;7.50;99.90;;;;;;5090475;28;20083;-79
2022/11/15 01:04:23;;;;;;;25.95;16.85;;;7.40;99.90;;;;;;5072544;28;20055;-79
2022/11/15 01:06:48;;;;;;;24.63;16.63;;;7.50;99.90;;;;;;5072567;28;20051;-78
2022/11/15 01:09:14;;;;;;;24.77;16.75;;;7.50;99.90;;;;;;5090687;28;20044;-77
2022/11/15 01:11:40;;;;;;;31.35;18.13;;;7.50;99.90;;;;;;5090436;28;20047;-76
2022/11/15 01:14:05;;;;;;;26.33;18.42;;;7.50;99.90;;;;;;5072451;28;20063;-79
2022/11/15 01:16:32;;;;;;;28.55;18.10;;;7.80;99.90;;;;;;5090379;28;20044;-77
2022/11/15 01:18:58;;;;;;;31.35;20.48;;;8.00;99.90;;;;;;5090772;28;20094;-78
2022/11/15 01:21:24;;;;;;;30.90;20.35;;;7.40;99.90;;;;;;5090845;28;20094;-78
2022/11/15 01:23:54;;;;;;;28.60;19.75;;;7.40;99.90;;;;;;5089952;28;20456;-78
2022/11/15 01:26:19;;;;;;;27.70;19.27;;;7.70;99.90;;;;;;5072482;28;20056;-79
2022/11/15 01:28:45;;;;;;;28.58;20.20;;;7.40;99.90;;;;;;5090543;28;20055;-78
2022/11/15 01:31:17;;;;;;;31.90;20.50;;;7.40;99.90;;;;;;5090066;28;20479;-78
2022/11/15 01:33:42;;;;;;;29.60;20.38;;;7.40;99.90;;;;;;5090482;28;20058;-78
2022/11/15 01:36:12;;;;;;;30.05;20.95;;;7.40;99.90;;;;;;5090370;28;20036;-79
2022/11/15 01:38:38;;;;;;;28.83;19.48;;;7.30;99.90;;;;;;5090237;28;20051;-79
2022/11/15 01:41:04;;;;;;;31.88;20.83;;;7.30;99.90;;;;;;5089790;28;20039;-76
2022/11/15 01:43:35;;;;;;;31.77;20.58;;;7.30;99.90;;;;;;5090156;28;20044;-79
2022/11/15 01:46:06;;;;;;;32.20;21.45;;;7.30;99.90;;;;;;5072109;28;20135;-76
2022/11/15 01:48:34;;;;;;;31.92;20.17;;;7.30;99.90;;;;;;5090041;28;20503;-78
2022/11/15 01:51:04;;;;;;;30.52;20.38;;;7.30;99.90;;;;;;5090150;28;20051;-80
2022/11/15 01:53:33;;;;;;;31.25;19.42;;;7.30;99.90;;;;;;5071920;28;20047;-78
2022/11/15 01:56:02;;;;;;;30.92;20.50;;;7.30;99.90;;;;;;5089702;28;20552;-77
2022/11/15 01:58:27;;;;;;;30.45;19.52;;;7.30;99.90;;;;;;5090061;28;20039;-79
2022/11/15 02:00:53;;;;;;;34.35;19.65;;;7.20;99.90;;;;;;5089774;28;20498;-79
2022/11/15 02:03:22;;;;;;;29.00;19.35;;;7.20;99.90;;;;;;5090072;28;20047;-79
2022/11/15 02:05:48;;;;;;;31.88;20.63;;;7.20;99.90;;;;;;5076046;28;20126;-79
2022/11/15 02:08:19;;;;;;;30.67;20.35;;;7.20;99.90;;;;;;5093593;28;20034;-80
2022/11/15 02:10:46;;;;;;;29.10;19.35;;;7.20;99.90;;;;;;5093808;28;20058;-80
2022/11/15 02:13:17;;;;;;;27.58;17.80;;;7.20;99.90;;;;;;5093510;28;20044;-80
2022/11/15 02:16:12;;;;;;;31.92;18.85;;;7.20;99.90;;;;;;5094036;28;20047;-79
2022/11/15 02:18:53;;;;;;;31.02;19.02;;;7.20;99.90;;;;;;5093953;28;20044;-78
2022/11/15 02:21:43;;;;;;;27.17;17.85;;;7.20;99.90;;;;;;5093834;28;20371;-78
2022/11/15 02:24:29;;;;;;;29.80;18.48;;;7.20;99.90;;;;;;5092909;28;20055;-78
2022/11/15 02:27:04;;;;;;;35.28;18.85;;;7.20;99.90;;;;;;5075231;28;20087;-80
2022/11/15 02:30:00;;;;;;;31.48;18.58;;;7.20;99.90;;;;;;5075344;28;20125;-79
2022/11/15 02:32:45;;;;;;;28.98;18.65;;;7.20;99.90;;;;;;5010950;28;20101;-81
2022/11/15 02:35:22;;;;;;;31.50;19.30;;;7.10;99.90;;;;;;5010879;28;20217;-79
2022/11/15 02:37:57;;;;;;;35.15;19.52;;;7.20;99.90;;;;;;5010968;28;20125;-79
2022/11/15 02:40:34;;;;;;;30.15;17.80;;;7.20;99.90;;;;;;5011284;28;20129;-81
2022/11/15 02:46:10;;;;;;;34.00;19.70;;;7.20;99.90;;;;;;5011733;28;20548;-79
2022/11/15 02:48:36;;;;;;;32.40;19.80;;;7.20;99.90;;;;;;5011506;28;20049;-80
2022/11/15 02:51:02;;;;;;;32.73;19.50;;;7.20;99.90;;;;;;5011024;28;20050;-78
2022/11/15 02:53:28;;;;;;;31.83;18.50;;;7.10;99.90;;;;;;5010868;28;20057;-79
2022/11/15 02:55:56;;;;;;;35.20;20.00;;;7.20;99.90;;;;;;4994805;28;20053;-80
2022/11/15 02:58:46;;;;;;;31.90;19.92;;;7.20;99.90;;;;;;5010596;28;20081;-80
2022/11/15 03:01:33;;;;;;;32.17;19.42;;;7.20;99.90;;;;;;4995566;28;20060;-79
2022/11/15 03:04:20;;;;;;;30.45;19.20;;;7.20;99.90;;;;;;5020070;28;20058;-80
2022/11/15 03:06:54;;;;;;;37.08;19.98;;;7.20;99.90;;;;;;4994401;28;20045;-80
2022/11/15 03:09:32;;;;;;;34.85;19.88;;;7.20;99.90;;;;;;5050700;28;20060;-79
2022/11/15 03:12:11;;;;;;;37.42;21.17;;;7.20;99.90;;;;;;5092700;28;20101;-78
2022/11/15 03:14:48;;;;;;;33.95;20.23;;;7.20;99.90;;;;;;5092395;28;20044;-78
2022/11/15 03:17:30;;;;;;;36.38;19.38;;;7.20;99.90;;;;;;5092256;28;20399;-76
2022/11/15 03:20:08;;;;;;;34.08;19.88;;;7.30;99.90;;;;;;5092051;28;20075;-79
2022/11/15 03:22:39;;;;;;;33.72;18.83;;;7.30;99.90;;;;;;5092367;28;20044;-79
2022/11/15 03:25:08;;;;;;;33.65;19.10;;;7.20;99.90;;;;;;5091402;28;20058;-77
2022/11/15 03:27:43;;;;;;;36.53;18.73;;;7.20;99.90;;;;;;5091845;28;20447;-79
2022/11/15 03:30:09;;;;;;;34.20;19.20;;;7.30;99.90;;;;;;5092193;28;20048;-79
2022/11/15 03:32:40;;;;;;;34.67;20.23;;;7.20;99.90;;;;;;5091745;28;20392;-80
2022/11/15 03:35:05;;;;;;;38.05;20.13;;;7.20;99.90;;;;;;5091562;28;20046;-80
2022/11/15 03:37:39;;;;;;;38.45;19.63;;;7.30;99.90;;;;;;5092026;28;20127;-80
2022/11/15 03:40:06;;;;;;;40.22;21.15;;;7.30;99.90;;;;;;5091651;28;20059;-80
2022/11/15 03:42:38;;;;;;;46.15;21.63;;;7.30;99.90;;;;;;5091870;28;20044;-79
2022/11/15 03:45:26;;;;;;;43.55;20.83;;;7.30;99.90;;;;;;5073341;28;20077;-78
2022/11/15 03:48:07;;;;;;;41.15;20.25;;;7.30;99.90;;;;;;5091490;28;20040;-79
2022/11/15 03:50:33;;;;;;;40.70;20.60;;;7.30;99.90;;;;;;5084701;28;20048;-78
2022/11/15 03:52:59;;;;;;;40.33;20.30;;;7.30;99.90;;;;;;5084857;28;20052;-78
2022/11/15 03:55:25;;;;;;;43.75;21.10;;;7.40;99.90;;;;;;5091884;28;20054;-80
2022/11/15 03:57:54;;;;;;;36.83;20.73;;;7.40;99.90;;;;;;5106916;28;20086;-80
2022/11/15 04:00:20;;;;;;;42.83;21.10;;;7.40;99.90;;;;;;5112007;28;20035;-80
2022/11/15 04:02:45;;;;;;;42.30;21.75;;;7.40;99.90;;;;;;5094377;28;20093;-78
2022/11/15 04:05:11;;;;;;;38.15;20.02;;;7.40;99.90;;;;;;5091738;28;20035;-80
2022/11/15 04:07:37;;;;;;;42.58;21.35;;;7.40;99.90;;;;;;5091694;28;20036;-80
2022/11/15 04:10:03;;;;;;;37.35;19.73;;;8.10;99.90;;;;;;5073223;28;20044;-79
2022/11/15 04:12:30;;;;;;;42.20;20.30;;;7.50;99.90;;;;;;5091404;28;20125;-81
2022/11/15 04:15:17;;;;;;;42.65;20.20;;;7.50;99.90;;;;;;5091229;28;20112;-79
2022/11/15 04:17:49;;;;;;;43.17;21.67;;;7.50;99.90;;;;;;5091503;28;20040;-79
2022/11/15 04:25:57;;;;;;;43.05;21.77;;;7.50;99.90;;;;;;5083467;28;20554;-80
2022/11/15 04:28:23;;;;;;;42.00;21.48;;;7.60;99.90;;;;;;5091245;28;20048;-81
2022/11/15 04:30:49;;;;;;;40.95;19.90;;;7.60;99.90;;;;;;5090793;28;20075;-78
2022/11/15 04:33:15;;;;;;;43.75;19.95;;;7.60;99.90;;;;;;5091048;28;20117;-80
2022/11/15 04:35:42;;;;;;;44.47;21.63;;;7.70;99.90;;;;;;5073400;28;20048;-81
2022/11/15 04:38:09;;;;;;;41.65;22.02;;;7.70;99.90;;;;;;5090806;28;20040;-81
2022/11/15 04:40:36;;;;;;;43.58;21.67;;;7.60;99.90;;;;;;5091359;28;20036;-81
2022/11/15 04:43:01;;;;;;;41.58;19.75;;;7.70;99.90;;;;;;5072742;28;20055;-79
2022/11/15 04:45:27;;;;;;;43.47;21.92;;;7.70;99.90;;;;;;5091066;28;20040;-80
2022/11/15 04:47:53;;;;;;;44.15;21.70;;;8.10;99.90;;;;;;5090830;28;20067;-80
2022/11/15 04:50:18;;;;;;;47.42;21.48;;;7.70;99.90;;;;;;5092991;28;20055;-79
2022/11/15 04:52:53;;;;;;;40.70;20.73;;;7.70;99.90;;;;;;5111075;28;20160;-81
2022/11/15 04:55:19;;;;;;;47.15;22.33;;;7.80;99.90;;;;;;5110890;28;20101;-79
2022/11/15 04:57:45;;;;;;;48.90;21.98;;;7.80;99.90;;;;;;5090499;28;20503;-78
2022/11/15 05:00:13;;;;;;;50.10;22.48;;;7.80;99.90;;;;;;5090807;28;20082;-81
2022/11/15 05:05:24;;;;;;;46.10;22.65;;;7.80;99.90;;;;;;5070398;28;20092;-80
2022/11/15 05:07:50;;;;;;;49.67;23.40;;;7.90;99.90;;;;;;5078536;28;20548;-81
2022/11/15 05:10:16;;;;;;;51.65;23.52;;;7.90;99.90;;;;;;5072449;28;20052;-78
2022/11/15 05:12:42;;;;;;;57.17;24.02;;;7.90;99.90;;;;;;5090498;28;20044;-79
2022/11/15 05:15:08;;;;;;;57.00;24.35;;;7.90;99.90;;;;;;5090416;28;20505;-80
2022/11/15 05:17:34;;;;;;;51.75;23.55;;;8.00;99.90;;;;;;5072012;28;20048;-79
2022/11/15 05:19:59;;;;;;;58.35;24.50;;;8.00;99.90;;;;;;5090370;28;20030;-81
2022/11/15 05:22:25;;;;;;;63.03;26.30;;;8.00;99.90;;;;;;5090383;28;20047;-78
2022/11/15 05:24:51;;;;;;;62.65;25.85;;;8.10;99.90;;;;;;5090129;28;20402;-80
2022/11/15 05:27:16;;;;;;;58.35;26.75;;;8.50;99.90;;;;;;5072340;28;20066;-82
2022/11/15 05:29:42;;;;;;;61.88;26.42;;;8.10;99.90;;;;;;5090653;28;20075;-81
2022/11/15 05:32:10;;;;;;;63.60;28.13;;;8.10;99.90;;;;;;5089935;28;20044;-79
2022/11/15 05:34:35;;;;;;;65.53;28.42;;;8.20;99.90;;;;;;5089968;28;20055;-80
2022/11/15 05:37:01;;;;;;;76.18;28.98;;;8.20;99.90;;;;;;5087128;28;20442;-81
2022/11/15 05:39:27;;;;;;;56.28;27.85;;;8.20;99.90;;;;;;5089115;28;20123;-78
2022/11/15 05:42:02;;;;;;;61.80;28.65;;;8.30;99.90;;;;;;5090350;28;20048;-80
2022/11/15 05:44:28;;;;;;;68.50;27.08;;;8.30;99.90;;;;;;5090054;28;20044;-81
2022/11/15 05:46:55;;;;;;;64.53;29.33;;;8.30;99.90;;;;;;5071988;28;20051;-80
2022/11/15 05:49:28;;;;;;;61.58;28.25;;;8.40;99.90;;;;;;5089891;28;20440;-81
2022/11/15 05:51:54;;;;;;;61.72;27.40;;;8.40;99.90;;;;;;5070885;28;20135;-79
2022/11/15 05:54:22;;;;;;;63.70;28.85;;;8.40;99.90;;;;;;5090005;28;20111;-78
2022/11/15 05:56:49;;;;;;;76.45;30.95;;;8.40;99.90;;;;;;5090146;28;20074;-79
2022/11/15 05:59:15;;;;;;;86.50;32.53;;;8.50;99.90;;;;;;5089626;28;20558;-80
2022/11/15 06:01:40;;;;;;;77.88;32.00;;;8.50;99.90;;;;;;5089982;28;20040;-81
2022/11/15 06:04:06;;;;;;;78.68;31.83;;;8.50;99.90;;;;;;5071478;28;20073;-81
2022/11/15 06:06:32;;;;;;;79.63;32.78;;;8.60;99.90;;;;;;5089663;28;20040;-80
2022/11/15 06:08:58;;;;;;;74.90;31.45;;;8.60;99.90;;;;;;5089411;28;20451;-79
2022/11/15 06:11:23;;;;;;;67.75;30.25;;;8.60;99.90;;;;;;5089750;28;20506;-78
2022/11/15 06:13:49;;;;;;;74.00;30.73;;;8.80;99.90;;;;;;5089503;28;20048;-81
2022/11/15 06:16:14;;;;;;;82.45;31.80;;;8.70;99.90;;;;;;5089857;28;20048;-79
2022/11/15 06:18:40;;;;;;;70.97;31.92;;;8.80;99.90;;;;;;5089616;28;20040;-76
2022/11/15 06:21:06;;;;;;;84.43;32.65;;;8.80;99.90;;;;;;5089080;28;20040;-78
2022/11/15 06:23:33;;;;;;;73.40;31.73;;;8.80;99.90;;;;;;5089756;28;20047;-80
2022/11/15 06:26:00;;;;;;;78.55;31.98;;;8.80;99.90;;;;;;5089676;28;20056;-78
2022/11/15 06:28:29;;;;;;;68.15;30.55;;;8.90;99.90;;;;;;5089915;28;20056;-81
2022/11/15 06:30:54;;;;;;;76.05;32.42;;;9.40;99.90;;;;;;5089861;28;20159;-78
2022/11/15 06:33:20;;;;;;;63.13;31.23;;;9.30;99.90;;;;;;5089553;28;20573;-81
2022/11/15 06:35:46;;;;;;;75.10;33.97;;;8.90;99.90;;;;;;5089179;28;20048;-78
2022/11/15 06:38:12;;;;;;;71.05;31.63;;;9.10;99.90;;;;;;5058037;28;20033;-80
2022/11/15 06:40:39;;;;;;;72.25;32.47;;;9.50;99.90;;;;;;5069550;28;20041;-79
2022/11/15 06:43:06;;;;;;;87.60;34.05;;;9.10;99.90;;;;;;5069491;28;20094;-81
2022/11/15 06:45:32;;;;;;;68.32;31.20;;;9.10;99.90;;;;;;5069446;28;20139;-80
2022/11/15 06:47:58;;;;;;;73.75;31.13;;;9.10;99.90;;;;;;5069409;28;20049;-82
2022/11/15 06:50:24;;;;;;;71.90;31.75;;;9.10;99.90;;;;;;5070750;28;20048;-81
2022/11/15 06:52:50;;;;;;;68.75;31.02;;;9.10;99.90;;;;;;5074568;28;20448;-80
2022/11/15 06:55:15;;;;;;;71.95;30.70;;;9.50;99.90;;;;;;5093385;28;20052;-81
2022/11/15 06:57:48;;;;;;;70.38;32.35;;;9.70;99.90;;;;;;5093278;28;20401;-82
2022/11/15 07:00:15;;;;;;;58.47;29.88;;;9.90;99.90;;;;;;5092763;28;20070;-81
2022/11/15 07:02:40;;;;;;;65.50;29.90;;;9.30;99.90;;;;;;5093051;28;20487;-82
2022/11/15 07:05:06;;;;;;;75.22;32.63;;;9.30;99.90;;;;;;5092577;28;20046;-79
2022/11/15 07:07:32;;;;;;;67.80;30.20;;;9.30;99.90;;;;;;5092741;28;20126;-79
2022/11/15 07:09:57;;;;;;;58.70;28.17;;;9.30;99.90;;;;;;5092804;28;20126;-80
2022/11/15 07:12:23;;;;;;;71.47;31.45;;;9.40;99.90;;;;;;5092977;28;20048;-81
2022/11/15 07:14:49;;;;;;;73.07;31.50;;;9.50;99.90;;;;;;5092915;28;20506;-81
2022/11/15 07:17:14;;;;;;;64.13;29.83;;;9.40;99.90;;;;;;5092881;28;20094;-80
2022/11/15 07:19:40;;;;;;;62.42;29.98;;;9.50;99.90;;;;;;5092200;28;20051;-82
2022/11/15 07:22:05;;;;;;;79.38;32.85;;;9.80;99.90;;;;;;5070405;28;20083;-80
2022/11/15 07:24:31;;;;;;;68.88;31.13;;;9.80;99.90;;;;;;5081205;28;20058;-82
2022/11/15 07:26:57;;;;;;;66.28;31.33;;;10.00;99.90;;;;;;5088337;28;20801;-81
2022/11/15 07:29:22;;;;;;;76.25;33.45;;;9.50;99.90;;;;;;5092360;28;20044;-79
2022/11/15 07:31:50;;;;;;;68.90;30.08;;;9.60;99.90;;;;;;5074166;28;20047;-80
2022/11/15 07:34:16;;;;;;;60.30;30.75;;;10.00;99.90;;;;;;5092155;28;20047;-81
2022/11/15 07:36:41;;;;;;;62.50;30.20;;;9.60;99.90;;;;;;5092124;28;20563;-82
2022/11/15 07:39:07;;;;;;;65.90;30.63;;;9.80;99.90;;;;;;5092669;28;20044;-80
2022/11/15 07:41:33;;;;;;;60.13;30.63;;;9.60;99.90;;;;;;5074253;28;20498;-81
2022/11/15 07:43:59;;;;;;;58.95;28.27;;;9.80;99.90;;;;;;5092446;28;20052;-81
2022/11/15 07:46:24;;;;;;;62.55;29.98;;;9.70;99.90;;;;;;5092557;28;20467;-81
2022/11/15 07:48:50;;;;;;;62.13;30.55;;;9.70;99.90;;;;;;5092460;28;20051;-80
2022/11/15 07:51:16;;;;;;;65.95;30.20;;;10.20;99.90;;;;;;5092136;28;20039;-82
2022/11/15 07:53:43;;;;;;;55.00;29.90;;;9.80;99.90;;;;;;5092039;28;20479;-80
2022/11/15 07:56:09;;;;;;;58.63;28.80;;;9.80;99.90;;;;;;5092317;28;20044;-81
2022/11/15 07:58:35;;;;;;;54.53;27.55;;;9.90;99.90;;;;;;5092124;28;20488;-78
2022/11/15 08:01:05;;;;;;;51.97;28.73;;;10.30;99.90;;;;;;5090902;28;20110;-80
2022/11/15 08:03:31;;;;;;;61.35;29.27;;;10.00;99.90;;;;;;5073367;28;20060;-82
2022/11/15 08:05:57;;;;;;;53.38;28.20;;;10.00;99.90;;;;;;5073430;28;20044;-80
2022/11/15 08:08:22;;;;;;;49.72;27.83;;;9.90;99.90;;;;;;5091275;28;20518;-81
2022/11/15 08:10:48;;;;;;;53.38;27.95;;;10.00;99.90;;;;;;5092081;28;20044;-82
2022/11/15 08:13:13;;;;;;;53.22;27.50;;;10.00;99.90;;;;;;5076414;28;20069;-80
2022/11/15 08:15:39;;;;;;;55.80;27.40;;;10.10;99.90;;;;;;5053538;28;20045;-83
2022/11/15 08:18:13;;;;;;;56.55;28.83;;;10.10;99.90;;;;;;5058341;28;20062;-80
2022/11/15 08:20:39;;;;;;;54.28;26.98;;;10.10;99.90;;;;;;5091693;28;20482;-79
2022/11/15 08:23:06;;;;;;;52.65;27.17;;;10.90;99.90;;;;;;5091348;28;20052;-80
2022/11/15 08:25:33;;;;;;;56.10;26.58;;;10.20;99.90;;;;;;5091645;28;20055;-83
2022/11/15 08:28:01;;;;;;;47.30;27.67;;;10.30;99.90;;;;;;5091336;28;20144;-83
2022/11/15 08:30:27;;;;;;;49.63;27.17;;;10.30;99.90;;;;;;5091746;28;20044;-81
2022/11/15 08:32:55;;;;;;;50.80;27.40;;;10.30;99.90;;;;;;5091739;28;20095;-84
2022/11/15 08:35:21;;;;;;;46.53;26.48;;;10.40;99.90;;;;;;5091686;28;20079;-81
2022/11/15 08:37:47;;;;;;;48.17;25.77;;;10.40;99.90;;;;;;5073064;28;20047;-83
2022/11/15 08:40:13;;;;;;;47.80;27.02;;;10.40;99.90;;;;;;5091592;28;20063;-82
2022/11/15 08:42:39;;;;;;;40.42;25.17;;;10.50;99.90;;;;;;5091549;28;20143;-82
2022/11/15 08:45:06;;;;;;;47.30;25.85;;;10.50;99.90;;;;;;5091437;28;20151;-81
2022/11/15 08:47:31;;;;;;;41.67;23.98;;;10.60;99.90;;;;;;5090854;28;20156;-80
2022/11/15 08:49:57;;;;;;;41.63;24.98;;;10.60;99.90;;;;;;5091281;28;20127;-81
2022/11/15 08:52:23;;;;;;;45.60;25.80;;;10.60;99.90;;;;;;5090981;28;20130;-80
2022/11/15 08:54:48;;;;;;;40.30;24.65;;;10.70;99.90;;;;;;5090899;28;20159;-82
2022/11/15 08:57:14;;;;;;;36.10;23.20;;;10.60;99.90;;;;;;5091193;28;20080;-83
2022/11/15 08:59:40;;;;;;;44.15;25.35;;;10.60;99.90;;;;;;5091146;28;20050;-82
2022/11/15 09:02:06;;;;;;;38.95;22.98;;;10.60;99.90;;;;;;5073323;28;20140;-83
2022/11/15 09:04:32;;;;;;;36.38;22.67;;;11.20;99.90;;;;;;5091163;28;20040;-81
2022/11/15 09:06:57;;;;;;;38.38;22.58;;;10.70;99.90;;;;;;5090647;28;20044;-82
2022/11/15 09:09:23;;;;;;;38.28;23.35;;;10.90;99.90;;;;;;5090450;28;20093;-79
2022/11/15 09:11:50;;;;;;;33.53;22.95;;;10.80;99.90;;;;;;5090871;28;20481;-80
2022/11/15 09:14:16;;;;;;;42.42;23.02;;;10.80;99.90;;;;;;5090091;28;20052;-80
2022/11/15 09:16:41;;;;;;;39.88;23.25;;;10.80;99.90;;;;;;5072897;28;20051;-81
2022/11/15 09:19:07;;;;;;;38.40;22.63;;;11.20;99.90;;;;;;5090559;28;20083;-79
2022/11/15 09:21:33;;;;;;;34.00;22.13;;;10.90;99.90;;;;;;5090840;28;20051;-82
2022/11/15 09:23:59;;;;;;;37.50;22.15;;;10.90;99.90;;;;;;5090139;28;20083;-81
2022/11/15 09:26:24;;;;;;;30.77;20.42;;;11.00;99.90;;;;;;5090706;28;20051;-81
2022/11/15 09:28:50;;;;;;;33.67;21.92;;;11.00;99.90;;;;;;5090287;28;20089;-82
2022/11/15 09:31:16;;;;;;;33.63;21.13;;;11.50;99.90;;;;;;5090451;28;20050;-83
2022/11/15 09:33:45;;;;;;;33.75;20.85;;;11.10;99.90;;;;;;5090704;28;20040;-82
2022/11/15 09:36:11;;;;;;;34.67;20.80;;;11.10;99.90;;;;;;5072718;28;20040;-81
2022/11/15 09:38:37;;;;;;;33.08;20.98;;;11.10;99.90;;;;;;5090572;28;20488;-79
2022/11/15 09:41:13;;;;;;;35.40;19.60;;;11.10;99.90;;;;;;5090664;28;20148;-80
2022/11/15 09:44:06;;;;;;;29.55;18.48;;;11.60;99.90;;;;;;5090810;28;20122;-81
2022/11/15 09:46:44;;;;;;;28.42;20.40;;;11.30;99.90;;;;;;5090386;28;20511;-83
2022/11/15 09:49:13;;;;;;;32.58;20.02;;;11.20;99.90;;;;;;5090112;28;20036;-82
2022/11/15 09:51:48;;;;;;;37.55;19.45;;;11.30;99.90;;;;;;5089956;28;20078;-79
2022/11/15 09:54:43;;;;;;;28.40;19.55;;;11.30;99.90;;;;;;5090041;28;20126;-81
2022/11/15 09:57:34;;;;;;;33.72;18.92;;;11.30;99.90;;;;;;5072133;28;20048;-80
2022/11/15 10:00:00;;;;;;;27.45;18.55;;;11.30;99.90;;;;;;5079241;28;20056;-80
2022/11/15 10:02:34;;;;;;;27.55;18.00;;;11.50;99.90;;;;;;5090721;28;20044;-79
2022/11/15 10:05:01;;;;;;;28.90;18.40;;;11.40;99.90;;;;;;5090299;28;20161;-79
2022/11/15 10:07:27;;;;;;;29.77;18.55;;;11.50;99.90;;;;;;5090074;28;20043;-80
2022/11/15 10:09:56;;;;;;;28.02;18.55;;;11.50;99.90;;;;;;5089818;28;20044;-83
2022/11/15 10:12:22;;;;;;;25.50;17.75;;;12.10;99.90;;;;;;5089897;28;20513;-81
2022/11/15 10:14:51;;;;;;;27.58;17.67;;;11.40;99.90;;;;;;5090241;28;20093;-80
2022/11/15 10:17:32;;;;;;;34.75;19.45;;;11.50;99.90;;;;;;5071940;28;20123;-80
2022/11/15 10:20:19;;;;;;;30.55;17.55;;;11.50;99.90;;;;;;5090155;28;20403;-81
2022/11/15 10:22:50;;;;;;;28.80;17.48;;;11.50;99.90;;;;;;5072204;28;20052;-81
2022/11/15 10:25:19;;;;;;;24.05;16.85;;;11.80;99.90;;;;;;5091666;28;20131;-82
2022/11/15 10:27:52;;;;;;;27.48;18.15;;;11.90;99.90;;;;;;5094377;28;20105;-82
2022/11/15 10:30:19;;;;;;;28.67;18.13;;;11.90;99.90;;;;;;5076463;28;20048;-81
2022/11/15 10:32:47;;;;;;;29.13;17.33;;;11.90;99.90;;;;;;5094212;28;20106;-83
2022/11/15 10:35:22;;;;;;;24.55;16.25;;;12.00;99.90;;;;;;5094023;28;20079;-82
2022/11/15 10:37:48;;;;;;;29.15;17.02;;;11.90;99.90;;;;;;5094232;28;20431;-80
2022/11/15 10:40:18;;;;;;;30.35;17.63;;;11.90;99.90;;;;;;5094068;28;20111;-80
2022/11/15 10:42:44;;;;;;;32.63;16.92;;;11.90;99.90;;;;;;5075792;28;20056;-81
2022/11/15 10:45:23;;;;;;;27.40;16.20;;;11.90;99.90;;;;;;5093758;28;20541;-82
2022/11/15 10:47:49;;;;;;;23.67;15.82;;;11.90;99.90;;;;;;5093724;28;20086;-83
2022/11/15 10:50:32;;;;;;;24.17;16.02;;;12.30;99.90;;;;;;5075230;28;20075;-80
2022/11/15 10:53:00;;;;;;;24.08;14.90;;;12.10;99.90;;;;;;5093291;28;20040;-79
2022/11/15 10:55:30;;;;;;;27.73;14.50;;;12.10;99.90;;;;;;5092405;28;20430;-82
2022/11/15 10:58:04;;;;;;;21.08;14.40;;;12.30;99.90;;;;;;5074847;28;20059;-82
2022/11/15 11:00:33;;;;;;;20.50;13.80;;;12.10;99.90;;;;;;5073092;28;20115;-81
2022/11/15 11:03:03;;;;;;;19.52;13.70;;;12.20;99.90;;;;;;5055158;28;20060;-82
2022/11/15 11:05:36;;;;;;;17.70;12.35;;;12.20;99.90;;;;;;5089151;28;20040;-78
2022/11/15 11:08:14;;;;;;;24.83;12.30;;;12.20;99.90;;;;;;5075269;28;20482;-79
2022/11/15 11:11:02;;;;;;;21.88;11.80;;;12.20;99.90;;;;;;5075173;28;20048;-78
2022/11/15 11:13:34;;;;;;;19.77;11.77;;;12.60;99.90;;;;;;5093027;28;20044;-82
2022/11/15 11:16:15;;;;;;;17.40;12.15;;;12.20;99.90;;;;;;5093341;28;20048;-78
2022/11/15 11:19:01;;;;;;;17.85;11.02;;;12.30;99.90;;;;;;5092650;28;20092;-78
2022/11/15 11:21:59;;;;;;;20.65;11.02;;;12.30;99.90;;;;;;5092589;28;20127;-80
2022/11/15 11:24:31;;;;;;;17.00;10.65;;;12.30;99.90;;;;;;5085067;28;20043;-81
2022/11/15 11:27:02;;;;;;;18.67;10.10;;;12.50;99.90;;;;;;5074912;28;20056;-77
2022/11/15 11:29:53;;;;;;;13.75;9.55;;;12.50;99.90;;;;;;5092801;28;20055;-81
2022/11/15 11:32:48;;;;;;;14.45;8.63;;;12.40;99.90;;;;;;5074445;28;20052;-82
2022/11/15 11:35:17;;;;;;;16.35;8.32;;;12.50;99.90;;;;;;5092862;28;20052;-79
2022/11/15 11:38:03;;;;;;;15.05;8.07;;;12.50;99.90;;;;;;5069999;28;20049;-78
2022/11/15 11:40:43;;;;;;;13.52;7.47;;;12.60;99.90;;;;;;5072095;28;20048;-79
2022/11/15 11:43:30;;;;;;;12.30;7.30;;;12.60;99.90;;;;;;5078182;28;20076;-81
2022/11/15 11:46:04;;;;;;;12.13;6.32;;;12.60;99.90;;;;;;5092326;28;20070;-81
2022/11/15 11:49:01;;;;;;;11.40;4.65;;;12.60;99.90;;;;;;5092209;28;20085;-80
2022/11/15 11:51:49;;;;;;;9.13;4.03;;;12.60;99.90;;;;;;5092317;28;20056;-80
2022/11/15 11:54:24;;;;;;;6.57;3.78;;;12.60;99.90;;;;;;5092208;28;20040;-82
2022/11/15 11:56:51;;;;;;;12.52;5.10;;;12.70;99.90;;;;;;5092147;28;20402;-80
2022/11/15 11:59:17;;;;;;;7.65;4.35;;;12.90;99.90;;;;;;5091620;28;20054;-82
2022/11/15 12:01:44;;;;;;;9.70;3.63;;;12.60;99.90;;;;;;5091799;28;20051;-84
2022/11/15 12:04:13;;;;;;;8.80;3.53;;;12.70;99.90;;;;;;5091875;28;20039;-83
2022/11/15 12:06:56;;;;;;;8.98;3.00;;;13.20;99.90;;;;;;5073795;28;20127;-79
2022/11/15 12:09:59;;;;;;;7.95;3.13;;;12.80;99.90;;;;;;5091855;28;20089;-83
2022/11/15 12:12:39;;;;;;;6.28;3.10;;;12.90;99.90;;;;;;5009306;28;20441;-83
2022/11/15 12:15:19;;;;;;;6.85;2.70;;;12.90;99.90;;;;;;5005735;28;20053;-84
2022/11/15 12:17:46;;;;;;;5.30;2.25;;;12.90;99.90;;;;;;5008246;28;20429;-80
2022/11/15 12:20:20;;;;;;;7.75;2.00;;;13.00;99.90;;;;;;5008272;28;20042;-78
2022/11/15 12:22:54;;;;;;;8.15;2.05;;;12.80;99.90;;;;;;4991954;28;20062;-81
2022/11/15 12:25:46;;;;;;;4.75;1.90;;;12.80;99.90;;;;;;4975429;28;20078;-81
2022/11/15 12:28:32;;;;;;;9.07;2.05;;;12.80;99.90;;;;;;4959592;28;20375;-82
2022/11/15 12:31:03;;;;;;;6.15;1.98;;;12.90;99.90;;;;;;4969252;28;20609;-81
2022/11/15 12:33:40;;;;;;;9.77;2.40;;;13.00;99.90;;;;;;4981721;28;20053;-79
2022/11/15 12:36:10;;;;;;;7.53;2.35;;;13.10;99.90;;;;;;4989387;28;20058;-78
2022/11/15 12:38:58;;;;;;;8.45;2.53;;;13.10;99.90;;;;;;4988310;28;20042;-80
2022/11/15 12:41:27;;;;;;;7.15;2.42;;;13.30;99.90;;;;;;4988136;28;20061;-80
2022/11/15 12:43:53;;;;;;;5.85;3.08;;;13.80;99.90;;;;;;4988584;28;20042;-79
2022/11/15 12:46:30;;;;;;;10.77;2.65;;;13.50;99.90;;;;;;4971606;28;20506;-78
2022/11/15 12:48:55;;;;;;;9.13;2.00;;;13.60;99.90;;;;;;5059823;28;20060;-81
2022/11/15 12:51:43;;;;;;;8.77;2.80;;;13.50;99.90;;;;;;5068232;28;20099;-82
2022/11/15 12:54:24;;;;;;;7.03;2.10;;;13.60;99.90;;;;;;5060281;28;20064;-82
2022/11/15 12:57:07;;;;;;;7.35;2.05;;;13.70;99.90;;;;;;5052366;28;20059;-84
2022/11/15 13:00:01;;;;;;;8.20;2.25;;;14.00;99.90;;;;;;5069211;28;20048;-81
2022/11/15 13:02:46;;;;;;;4.93;2.45;;;13.90;99.90;;;;;;5050722;28;20045;-82